sensor_id;sensor_type;location;lat;lon;timestamp;pressure;altitude;pressure_sealevel;temperature;humidity
75420;BME280;63998;52.488;13.428;2023-07-13T00:02:15;100761.25;;;20.86;49.85
75420;BME280;63998;52.488;13.428;2023-07-13T00:04:40;100754.41;;;20.80;49.94
75420;BME280;63998;52.488;13.428;2023-07-13T00:07:07;100762.75;;;20.70;50.35
75420;BME280;63998;52.488;13.428;2023-07-13T00:09:32;100759.81;;;20.56;51.04
75420;BME280;63998;52.488;13.428;2023-07-13T00:11:58;100763.34;;;20.55;50.66
75420;BME280;63998;52.488;13.428;2023-07-13T00:14:24;100763.34;;;20.55;50.67
75420;BME280;63998;52.488;13.428;2023-07-13T00:16:50;100759.81;;;20.56;50.37
75420;BME280;63998;52.488;13.428;2023-07-13T00:19:16;100766.91;;;20.54;50.59
75420;BME280;63998;52.488;13.428;2023-07-13T00:21:42;100768.78;;;20.52;50.57
75420;BME280;63998;52.488;13.428;2023-07-13T00:24:10;100776.00;;;20.47;50.74
75420;BME280;63998;52.488;13.428;2023-07-13T00:26:38;100765.34;;;20.50;50.58
75420;BME280;63998;52.488;13.428;2023-07-13T00:29:03;100768.53;;;20.58;50.28
75420;BME280;63998;52.488;13.428;2023-07-13T00:31:29;100766.91;;;20.54;50.56
75420;BME280;63998;52.488;13.428;2023-07-13T00:33:54;100768.53;;;20.58;50.35
75420;BME280;63998;52.488;13.428;2023-07-13T00:36:20;100772.06;;;20.57;50.20
75420;BME280;63998;52.488;13.428;2023-07-13T00:38:46;100776.44;;;20.58;50.23
75420;BME280;63998;52.488;13.428;2023-07-13T00:41:11;100768.53;;;20.58;50.29
75420;BME280;63998;52.488;13.428;2023-07-13T00:43:36;100769.63;;;20.52;50.42
75420;BME280;63998;52.488;13.428;2023-07-13T00:46:14;100771.53;;;20.49;50.50
75420;BME280;63998;52.488;13.428;2023-07-13T00:48:40;100767.97;;;20.50;50.11
75420;BME280;63998;52.488;13.428;2023-07-13T00:51:06;100767.16;;;20.48;50.22
75420;BME280;63998;52.488;13.428;2023-07-13T00:53:32;100765.34;;;20.50;50.13
75420;BME280;63998;52.488;13.428;2023-07-13T00:55:59;100767.06;;;20.51;49.55
75420;BME280;63998;52.488;13.428;2023-07-13T00:58:25;100766.91;;;20.54;49.87
75420;BME280;63998;52.488;13.428;2023-07-13T01:00:52;100779.19;;;20.55;50.05
75420;BME280;63998;52.488;13.428;2023-07-13T01:03:18;100774.78;;;20.55;49.64
75420;BME280;63998;52.488;13.428;2023-07-13T01:05:47;100771.28;;;20.55;49.53
75420;BME280;63998;52.488;13.428;2023-07-13T01:08:13;100772.06;;;20.57;49.90
75420;BME280;63998;52.488;13.428;2023-07-13T01:10:38;100777.47;;;20.54;49.54
75420;BME280;63998;52.488;13.428;2023-07-13T01:13:08;100779.19;;;20.55;49.52
75420;BME280;63998;52.488;13.428;2023-07-13T01:15:43;100775.09;;;20.48;50.11
75420;BME280;63998;52.488;13.428;2023-07-13T01:18:20;100781.63;;;20.37;50.83
75420;BME280;63998;52.488;13.428;2023-07-13T01:20:59;100777.41;;;20.32;51.00
75420;BME280;63998;52.488;13.428;2023-07-13T01:23:26;100772.19;;;20.07;51.87
75420;BME280;63998;52.488;13.428;2023-07-13T01:25:52;100779.50;;;19.99;52.23
75420;BME280;63998;52.488;13.428;2023-07-13T01:28:19;100781.63;;;19.89;52.64
75420;BME280;63998;52.488;13.428;2023-07-13T01:30:45;100786.94;;;19.88;52.99
75420;BME280;63998;52.488;13.428;2023-07-13T01:33:16;100782.06;;;19.77;53.26
75420;BME280;63998;52.488;13.428;2023-07-13T01:35:42;100781.25;;;19.75;52.94
75420;BME280;63998;52.488;13.428;2023-07-13T01:38:07;100778.44;;;19.80;52.86
75420;BME280;63998;52.488;13.428;2023-07-13T01:40:34;100776.72;;;19.79;53.18
75420;BME280;63998;52.488;13.428;2023-07-13T01:43:00;100775.78;;;19.80;52.86
75420;BME280;63998;52.488;13.428;2023-07-13T01:45:25;100775.13;;;19.75;53.60
75420;BME280;63998;52.488;13.428;2023-07-13T01:47:50;100778.22;;;19.61;53.63
75420;BME280;63998;52.488;13.428;2023-07-13T01:50:16;100770.59;;;19.53;54.16
75420;BME280;63998;52.488;13.428;2023-07-13T01:52:41;100763.72;;;19.49;54.02
75420;BME280;63998;52.488;13.428;2023-07-13T01:55:07;100765.44;;;19.50;53.23
75420;BME280;63998;52.488;13.428;2023-07-13T01:57:32;100767.22;;;19.48;53.87
75420;BME280;63998;52.488;13.428;2023-07-13T01:59:58;100772.81;;;19.39;54.41
75420;BME280;63998;52.488;13.428;2023-07-13T02:02:24;100779.34;;;19.27;54.99
75420;BME280;63998;52.488;13.428;2023-07-13T02:04:49;100776.09;;;19.19;55.00
75420;BME280;63998;52.488;13.428;2023-07-13T02:07:14;100782.44;;;19.14;55.30
75420;BME280;63998;52.488;13.428;2023-07-13T02:09:40;100781.97;;;19.01;56.26
75420;BME280;63998;52.488;13.428;2023-07-13T02:12:07;100776.41;;;18.82;57.21
75420;BME280;63998;52.488;13.428;2023-07-13T02:14:33;100779.44;;;18.70;57.55
75420;BME280;63998;52.488;13.428;2023-07-13T02:16:58;100782.91;;;18.71;57.70
75420;BME280;63998;52.488;13.428;2023-07-13T02:19:24;100780.44;;;18.66;57.71
75420;BME280;63998;52.488;13.428;2023-07-13T02:21:49;100781.31;;;18.67;57.97
75420;BME280;63998;52.488;13.428;2023-07-13T02:24:14;100771.53;;;18.70;58.04
75420;BME280;63998;52.488;13.428;2023-07-13T02:26:43;100751.25;;;18.74;57.24
75420;BME280;63998;52.488;13.428;2023-07-13T02:29:09;100750.41;;;18.73;57.71
75420;BME280;63998;52.488;13.428;2023-07-13T02:31:34;100750.47;;;18.70;57.93
75420;BME280;63998;52.488;13.428;2023-07-13T02:34:01;100753.13;;;18.70;57.65
75420;BME280;63998;52.488;13.428;2023-07-13T02:36:26;100750.41;;;18.73;57.71
75420;BME280;63998;52.488;13.428;2023-07-13T02:38:51;100760.25;;;18.67;58.11
75420;BME280;63998;52.488;13.428;2023-07-13T02:41:17;100763.09;;;18.59;58.35
75420;BME280;63998;52.488;13.428;2023-07-13T02:43:42;100776.53;;;18.50;58.87
75420;BME280;63998;52.488;13.428;2023-07-13T02:46:07;100780.09;;;18.47;58.80
75420;BME280;63998;52.488;13.428;2023-07-13T02:48:33;100779.22;;;18.47;59.13
75420;BME280;63998;52.488;13.428;2023-07-13T02:50:59;100781.03;;;18.45;59.10
75420;BME280;63998;52.488;13.428;2023-07-13T02:53:24;100788.13;;;18.43;59.34
75420;BME280;63998;52.488;13.428;2023-07-13T02:55:50;100784.56;;;18.44;58.94
75420;BME280;63998;52.488;13.428;2023-07-13T02:58:15;100781.91;;;18.45;58.93
75420;BME280;63998;52.488;13.428;2023-07-13T03:00:42;100782.97;;;18.40;59.67
75420;BME280;63998;52.488;13.428;2023-07-13T03:03:08;100786.78;;;18.29;59.73
75420;BME280;63998;52.488;13.428;2023-07-13T03:05:33;100803.81;;;18.16;60.68
75420;BME280;63998;52.488;13.428;2023-07-13T03:07:58;100806.50;;;18.13;60.41
75420;BME280;63998;52.488;13.428;2023-07-13T03:10:24;100803.16;;;18.08;60.48
75420;BME280;63998;52.488;13.428;2023-07-13T03:12:49;100805.13;;;18.00;60.97
75420;BME280;63998;52.488;13.428;2023-07-13T03:15:14;100806.84;;;18.01;60.83
75420;BME280;63998;52.488;13.428;2023-07-13T03:17:40;100808.81;;;17.93;61.27
75420;BME280;63998;52.488;13.428;2023-07-13T03:20:06;100808.75;;;17.96;61.35
75420;BME280;63998;52.488;13.428;2023-07-13T03:22:32;100803.56;;;17.93;61.54
75420;BME280;63998;52.488;13.428;2023-07-13T03:24:57;100805.28;;;17.94;61.52
75420;BME280;63998;52.488;13.428;2023-07-13T03:27:23;100814.94;;;17.93;61.46
75420;BME280;63998;52.488;13.428;2023-07-13T03:29:48;100815.16;;;17.86;62.19
75420;BME280;63998;52.488;13.428;2023-07-13T03:32:13;100812.59;;;17.83;62.08
75420;BME280;63998;52.488;13.428;2023-07-13T03:34:38;100812.72;;;17.80;62.54
75420;BME280;63998;52.488;13.428;2023-07-13T03:37:04;100823.09;;;17.83;61.89
75420;BME280;63998;52.488;13.428;2023-07-13T03:39:29;100822.97;;;17.89;61.67
75420;BME280;63998;52.488;13.428;2023-07-13T03:41:55;100823.78;;;17.91;62.36
75420;BME280;63998;52.488;13.428;2023-07-13T03:44:20;100823.59;;;17.97;61.77
75420;BME280;63998;52.488;13.428;2023-07-13T03:46:46;100820.06;;;17.98;61.91
75420;BME280;63998;52.488;13.428;2023-07-13T03:49:11;100831.44;;;17.99;62.20
75420;BME280;63998;52.488;13.428;2023-07-13T03:51:37;100827.81;;;18.04;62.21
75420;BME280;63998;52.488;13.428;2023-07-13T03:54:03;100826.75;;;18.10;61.61
75420;BME280;63998;52.488;13.428;2023-07-13T03:56:29;100832.72;;;18.16;61.41
75420;BME280;63998;52.488;13.428;2023-07-13T03:58:56;100834.47;;;18.17;61.54
75420;BME280;63998;52.488;13.428;2023-07-13T04:01:23;100840.41;;;18.24;61.36
75420;BME280;63998;52.488;13.428;2023-07-13T04:03:50;100827.22;;;18.25;61.63
75420;BME280;63998;52.488;13.428;2023-07-13T04:06:18;100827.00;;;18.31;61.30
75420;BME280;63998;52.488;13.428;2023-07-13T04:08:52;100834.13;;;18.29;62.00
75420;BME280;63998;52.488;13.428;2023-07-13T04:11:24;100831.56;;;18.26;62.02
75420;BME280;63998;52.488;13.428;2023-07-13T04:13:50;100828.84;;;18.29;61.71
75420;BME280;63998;52.488;13.428;2023-07-13T04:16:16;100833.19;;;18.30;61.54
75420;BME280;63998;52.488;13.428;2023-07-13T04:18:42;100835.66;;;18.37;60.85
75420;BME280;63998;52.488;13.428;2023-07-13T04:21:08;100833.66;;;18.45;60.63
75420;BME280;63998;52.488;13.428;2023-07-13T04:23:35;100839.94;;;18.41;60.75
75420;BME280;63998;52.488;13.428;2023-07-13T04:26:00;100831.94;;;18.44;60.44
75420;BME280;63998;52.488;13.428;2023-07-13T04:28:26;100837.09;;;18.47;60.14
75420;BME280;63998;52.488;13.428;2023-07-13T04:30:52;100845.81;;;18.49;59.84
75420;BME280;63998;52.488;13.428;2023-07-13T04:33:18;100832.03;;;18.41;60.03
75420;BME280;63998;52.488;13.428;2023-07-13T04:35:47;100846.66;;;18.51;59.95
75420;BME280;63998;52.488;13.428;2023-07-13T04:38:12;100843.78;;;18.60;59.19
75420;BME280;63998;52.488;13.428;2023-07-13T04:40:39;100844.31;;;18.71;58.87
75420;BME280;63998;52.488;13.428;2023-07-13T04:43:05;100852.97;;;18.75;59.08
75420;BME280;63998;52.488;13.428;2023-07-13T04:45:30;100853.31;;;18.64;59.36
75420;BME280;63998;52.488;13.428;2023-07-13T04:47:56;100855.94;;;18.64;59.40
75420;BME280;63998;52.488;13.428;2023-07-13T04:50:22;100860.28;;;18.65;59.34
75420;BME280;63998;52.488;13.428;2023-07-13T04:52:49;100860.28;;;18.65;59.70
75420;BME280;63998;52.488;13.428;2023-07-13T04:55:15;100857.47;;;18.71;59.30
75420;BME280;63998;52.488;13.428;2023-07-13T04:57:41;100865.28;;;18.74;59.00
75420;BME280;63998;52.488;13.428;2023-07-13T05:00:07;100872.97;;;18.80;59.10
75420;BME280;63998;52.488;13.428;2023-07-13T05:02:33;100867.53;;;18.86;58.91
75420;BME280;63998;52.488;13.428;2023-07-13T05:04:59;100872.75;;;18.88;58.79
75420;BME280;63998;52.488;13.428;2023-07-13T05:07:25;100882.34;;;18.90;58.52
75420;BME280;63998;52.488;13.428;2023-07-13T05:09:52;100888.41;;;18.92;58.44
75420;BME280;63998;52.488;13.428;2023-07-13T05:12:17;100890.00;;;18.98;58.54
75420;BME280;63998;52.488;13.428;2023-07-13T05:14:43;100882.88;;;19.01;58.18
75420;BME280;63998;52.488;13.428;2023-07-13T05:17:08;100877.41;;;19.08;57.88
75420;BME280;63998;52.488;13.428;2023-07-13T05:19:34;100889.66;;;19.09;58.03
75420;BME280;63998;52.488;13.428;2023-07-13T05:21:59;100877.97;;;19.17;57.47
75420;BME280;63998;52.488;13.428;2023-07-13T05:24:24;100887.47;;;19.23;57.73
75420;BME280;63998;52.488;13.428;2023-07-13T05:26:50;100887.47;;;19.23;57.33
75420;BME280;63998;52.488;13.428;2023-07-13T05:29:15;100888.22;;;19.28;57.37
75420;BME280;63998;52.488;13.428;2023-07-13T05:31:41;100891.84;;;19.24;57.35
75420;BME280;63998;52.488;13.428;2023-07-13T05:34:06;100882.97;;;19.26;57.19
75420;BME280;63998;52.488;13.428;2023-07-13T05:36:31;100892.34;;;19.35;57.16
75420;BME280;63998;52.488;13.428;2023-07-13T05:38:57;100890.31;;;19.43;57.16
75420;BME280;63998;52.488;13.428;2023-07-13T05:41:22;100896.50;;;19.42;57.34
75420;BME280;63998;52.488;13.428;2023-07-13T05:43:47;100890.09;;;19.52;56.88
75420;BME280;63998;52.488;13.428;2023-07-13T05:46:13;100887.16;;;19.61;56.87
75420;BME280;63998;52.488;13.428;2023-07-13T05:48:38;100880.59;;;19.73;56.69
75420;BME280;63998;52.488;13.428;2023-07-13T05:51:03;100890.00;;;19.80;56.25
75420;BME280;63998;52.488;13.428;2023-07-13T05:53:29;100889.16;;;19.80;56.21
75420;BME280;63998;52.488;13.428;2023-07-13T05:55:55;100896.78;;;19.89;55.83
75420;BME280;63998;52.488;13.428;2023-07-13T05:58:20;100899.09;;;19.98;56.08
75420;BME280;63998;52.488;13.428;2023-07-13T06:00:46;100892.81;;;20.02;55.84
75420;BME280;63998;52.488;13.428;2023-07-13T06:03:12;100888.22;;;20.07;55.52
75420;BME280;63998;52.488;13.428;2023-07-13T06:05:38;100892.19;;;20.19;55.38
75420;BME280;63998;52.488;13.428;2023-07-13T06:08:04;100897.69;;;20.13;55.15
75420;BME280;63998;52.488;13.428;2023-07-13T06:10:33;100893.25;;;20.15;55.41
75420;BME280;63998;52.488;13.428;2023-07-13T06:12:58;100886.88;;;20.20;55.01
75420;BME280;63998;52.488;13.428;2023-07-13T06:15:24;100886.44;;;20.07;55.13
75420;BME280;63998;52.488;13.428;2023-07-13T06:17:49;100887.88;;;20.16;55.06
75420;BME280;63998;52.488;13.428;2023-07-13T06:20:14;100899.91;;;20.25;55.23
75420;BME280;63998;52.488;13.428;2023-07-13T06:22:40;100885.63;;;20.30;54.58
75420;BME280;63998;52.488;13.428;2023-07-13T06:25:05;100887.97;;;20.39;54.27
75420;BME280;63998;52.488;13.428;2023-07-13T06:27:31;100882.31;;;20.50;53.93
75420;BME280;63998;52.488;13.428;2023-07-13T06:29:56;100876.03;;;20.53;53.93
75420;BME280;63998;52.488;13.428;2023-07-13T06:32:22;100874.81;;;20.63;53.39
75420;BME280;63998;52.488;13.428;2023-07-13T06:34:47;100864.69;;;20.74;53.35
75420;BME280;63998;52.488;13.428;2023-07-13T06:37:12;100873.44;;;20.76;53.09
75420;BME280;63998;52.488;13.428;2023-07-13T06:39:38;100878.56;;;20.79;53.00
75420;BME280;63998;52.488;13.428;2023-07-13T06:42:03;100880.06;;;20.86;53.10
75420;BME280;63998;52.488;13.428;2023-07-13T06:44:29;100884.88;;;20.98;52.93
75420;BME280;63998;52.488;13.428;2023-07-13T06:46:55;100883.97;;;20.99;52.72
75420;BME280;63998;52.488;13.428;2023-07-13T06:49:20;100879.13;;;21.10;52.26
75420;BME280;63998;52.488;13.428;2023-07-13T06:51:45;100882.41;;;21.15;52.17
75420;BME280;63998;52.488;13.428;2023-07-13T06:54:11;100885.78;;;21.21;52.17
75420;BME280;63998;52.488;13.428;2023-07-13T06:56:36;100887.41;;;21.25;51.27
75420;BME280;63998;52.488;13.428;2023-07-13T06:59:01;100882.38;;;21.17;50.51
75420;BME280;63998;52.488;13.428;2023-07-13T07:01:27;100880.38;;;21.24;50.71
75420;BME280;63998;52.488;13.428;2023-07-13T07:03:52;100881.84;;;21.31;50.31
75420;BME280;63998;52.488;13.428;2023-07-13T07:06:20;100880.50;;;21.42;50.19
75420;BME280;63998;52.488;13.428;2023-07-13T07:08:46;100882.97;;;21.47;49.37
75420;BME280;63998;52.488;13.428;2023-07-13T07:11:13;100877.84;;;21.42;49.63
75420;BME280;63998;52.488;13.428;2023-07-13T07:13:39;100881.13;;;21.49;49.50
75420;BME280;63998;52.488;13.428;2023-07-13T07:16:05;100878.09;;;21.58;49.53
75420;BME280;63998;52.488;13.428;2023-07-13T07:18:30;100886.94;;;21.57;49.05
75420;BME280;63998;52.488;13.428;2023-07-13T07:20:56;100875.06;;;21.67;48.91
75420;BME280;63998;52.488;13.428;2023-07-13T07:23:21;100883.56;;;21.75;48.38
75420;BME280;63998;52.488;13.428;2023-07-13T07:25:46;100886.00;;;21.80;48.21
75420;BME280;63998;52.488;13.428;2023-07-13T07:28:15;100888.50;;;21.83;47.85
75420;BME280;63998;52.488;13.428;2023-07-13T07:30:43;100891.41;;;21.99;47.39
75420;BME280;63998;52.488;13.428;2023-07-13T07:33:09;100887.44;;;22.09;47.21
75420;BME280;63998;52.488;13.428;2023-07-13T07:35:34;100892.06;;;21.82;46.96
75420;BME280;63998;52.488;13.428;2023-07-13T07:37:59;100891.16;;;21.83;46.93
75420;BME280;63998;52.488;13.428;2023-07-13T07:40:25;100891.25;;;22.02;46.92
75420;BME280;63998;52.488;13.428;2023-07-13T07:42:51;100904.75;;;22.16;46.32
75420;BME280;63998;52.488;13.428;2023-07-13T07:45:16;100897.72;;;22.15;45.98
75420;BME280;63998;52.488;13.428;2023-07-13T07:47:42;100892.63;;;22.31;46.00
75420;BME280;63998;52.488;13.428;2023-07-13T07:50:07;100890.88;;;22.11;46.79
75420;BME280;63998;52.488;13.428;2023-07-13T07:52:32;100891.91;;;22.27;46.69
75420;BME280;63998;52.488;13.428;2023-07-13T07:54:58;100896.97;;;22.52;46.02
75420;BME280;63998;52.488;13.428;2023-07-13T07:57:23;100896.34;;;22.66;45.46
75420;BME280;63998;52.488;13.428;2023-07-13T07:59:49;100893.31;;;22.75;45.90
75420;BME280;63998;52.488;13.428;2023-07-13T08:02:14;100904.72;;;22.56;44.90
75420;BME280;63998;52.488;13.428;2023-07-13T08:04:39;100911.31;;;22.67;45.77
75420;BME280;63998;52.488;13.428;2023-07-13T08:07:05;100906.75;;;22.70;45.69
75420;BME280;63998;52.488;13.428;2023-07-13T08:09:31;100908.41;;;22.73;45.58
75420;BME280;63998;52.488;13.428;2023-07-13T08:11:57;100900.06;;;22.82;45.73
75420;BME280;63998;52.488;13.428;2023-07-13T08:14:22;100903.75;;;22.78;45.79
75420;BME280;63998;52.488;13.428;2023-07-13T08:16:47;100906.78;;;22.89;45.52
75420;BME280;63998;52.488;13.428;2023-07-13T08:19:12;100914.50;;;23.12;45.19
75420;BME280;63998;52.488;13.428;2023-07-13T08:21:38;100905.22;;;23.22;44.02
75420;BME280;63998;52.488;13.428;2023-07-13T08:24:03;100904.91;;;23.28;44.57
75420;BME280;63998;52.488;13.428;2023-07-13T08:26:29;100905.63;;;23.32;43.94
75420;BME280;63998;52.488;13.428;2023-07-13T08:28:54;100901.03;;;23.36;43.70
75420;BME280;63998;52.488;13.428;2023-07-13T08:31:19;100912.91;;;23.46;43.64
75420;BME280;63998;52.488;13.428;2023-07-13T08:33:45;100913.22;;;23.21;43.36
75420;BME280;63998;52.488;13.428;2023-07-13T08:36:10;100918.66;;;23.18;43.57
75420;BME280;63998;52.488;13.428;2023-07-13T08:38:36;100937.88;;;23.04;42.83
75420;BME280;63998;52.488;13.428;2023-07-13T08:41:11;100939.66;;;22.85;43.58
75420;BME280;63998;52.488;13.428;2023-07-13T08:43:37;100930.91;;;22.63;43.86
75420;BME280;63998;52.488;13.428;2023-07-13T08:48:35;100925.25;;;22.31;45.66
75420;BME280;63998;52.488;13.428;2023-07-13T08:53:49;100915.53;;;22.32;46.46
75420;BME280;63998;52.488;13.428;2023-07-13T08:56:18;100919.16;;;22.49;45.61
75420;BME280;63998;52.488;13.428;2023-07-13T08:58:48;100918.00;;;22.36;46.01
75420;BME280;63998;52.488;13.428;2023-07-13T09:04:23;100929.06;;;22.65;45.84
75420;BME280;63998;52.488;13.428;2023-07-13T09:12:17;100934.69;;;22.77;44.11
75420;BME280;63998;52.488;13.428;2023-07-13T09:14:49;100928.56;;;22.96;43.14
75420;BME280;63998;52.488;13.428;2023-07-13T09:17:26;100923.53;;;23.27;43.03
75420;BME280;63998;52.488;13.428;2023-07-13T09:20:17;100927.72;;;23.50;41.73
75420;BME280;63998;52.488;13.428;2023-07-13T09:22:46;100920.44;;;23.55;41.59
75420;BME280;63998;52.488;13.428;2023-07-13T09:25:23;100914.38;;;23.87;41.72
75420;BME280;63998;52.488;13.428;2023-07-13T09:27:53;100917.34;;;23.98;39.78
75420;BME280;63998;52.488;13.428;2023-07-13T09:30:32;100910.34;;;23.80;39.39
75420;BME280;63998;52.488;13.428;2023-07-13T09:32:59;100916.44;;;23.82;39.72
75420;BME280;63998;52.488;13.428;2023-07-13T09:35:27;100921.38;;;23.54;39.67
75420;BME280;63998;52.488;13.428;2023-07-13T09:38:17;100916.31;;;23.67;39.99
75420;BME280;63998;52.488;13.428;2023-07-13T09:41:04;100926.81;;;23.51;40.05
75420;BME280;63998;52.488;13.428;2023-07-13T09:43:35;100921.16;;;23.40;41.14
75420;BME280;63998;52.488;13.428;2023-07-13T09:46:01;100923.53;;;23.46;39.03
75420;BME280;63998;52.488;13.428;2023-07-13T09:48:34;100935.78;;;23.29;39.90
75420;BME280;63998;52.488;13.428;2023-07-13T09:51:07;100931.53;;;23.63;39.40
75420;BME280;63998;52.488;13.428;2023-07-13T09:53:37;100914.16;;;23.75;39.82
75420;BME280;63998;52.488;13.428;2023-07-13T09:56:03;100924.38;;;23.99;39.77
75420;BME280;63998;52.488;13.428;2023-07-13T09:58:31;100912.03;;;23.98;37.68
75420;BME280;63998;52.488;13.428;2023-07-13T10:01:02;100924.16;;;24.04;37.08
75420;BME280;63998;52.488;13.428;2023-07-13T10:03:31;100937.50;;;23.85;37.12
75420;BME280;63998;52.488;13.428;2023-07-13T10:06:14;100919.69;;;23.87;36.99
75420;BME280;63998;52.488;13.428;2023-07-13T10:11:11;100919.94;;;23.47;38.06
75420;BME280;63998;52.488;13.428;2023-07-13T10:13:43;100929.09;;;23.40;38.67
75420;BME280;63998;52.488;13.428;2023-07-13T10:16:09;100919.56;;;23.73;38.72
75420;BME280;63998;52.488;13.428;2023-07-13T10:18:42;100913.69;;;24.18;38.32
75420;BME280;63998;52.488;13.428;2023-07-13T10:21:18;100938.53;;;24.17;37.58
75420;BME280;63998;52.488;13.428;2023-07-13T10:23:48;100918.31;;;24.15;37.21
75420;BME280;63998;52.488;13.428;2023-07-13T10:26:21;100912.75;;;24.37;37.16
75420;BME280;63998;52.488;13.428;2023-07-13T10:28:52;100927.03;;;24.17;37.02
75420;BME280;63998;52.488;13.428;2023-07-13T10:31:20;100917.53;;;23.95;37.96
75420;BME280;63998;52.488;13.428;2023-07-13T10:33:46;100919.88;;;23.84;38.30
75420;BME280;63998;52.488;13.428;2023-07-13T10:36:13;100922.53;;;23.84;38.44
75420;BME280;63998;52.488;13.428;2023-07-13T10:38:39;100922.50;;;24.02;36.71
75420;BME280;63998;52.488;13.428;2023-07-13T10:41:11;100918.31;;;24.32;36.38
75420;BME280;63998;52.488;13.428;2023-07-13T10:43:43;100932.34;;;24.51;35.56
75420;BME280;63998;52.488;13.428;2023-07-13T10:46:14;100937.16;;;24.60;35.75
75420;BME280;63998;52.488;13.428;2023-07-13T10:48:42;100922.84;;;24.30;36.25
75420;BME280;63998;52.488;13.428;2023-07-13T10:51:11;100937.63;;;24.36;35.94
75420;BME280;63998;52.488;13.428;2023-07-13T10:53:38;100934.22;;;24.15;35.55
75420;BME280;63998;52.488;13.428;2023-07-13T10:58:43;100937.50;;;24.20;35.98
75420;BME280;63998;52.488;13.428;2023-07-13T11:01:14;100906.13;;;24.45;35.93
75420;BME280;63998;52.488;13.428;2023-07-13T11:08:57;100903.16;;;25.00;33.76
75420;BME280;63998;52.488;13.428;2023-07-13T11:18:45;100911.50;;;25.87;32.60
75420;BME280;63998;52.488;13.428;2023-07-13T11:21:19;100915.66;;;26.06;31.69
75420;BME280;63998;52.488;13.428;2023-07-13T11:23:51;100914.22;;;25.71;30.83
75420;BME280;63998;52.488;13.428;2023-07-13T11:29:53;100900.38;;;25.80;31.16
75420;BME280;63998;52.488;13.428;2023-07-13T11:31:55;100894.63;;;26.02;30.96
75420;BME280;63998;52.488;13.428;2023-07-13T11:34:27;100906.50;;;25.96;31.45
75420;BME280;63998;52.488;13.428;2023-07-13T11:36:54;100891.41;;;26.11;31.65
75420;BME280;63998;52.488;13.428;2023-07-13T11:39:29;100902.53;;;26.03;30.94
75420;BME280;63998;52.488;13.428;2023-07-13T11:42:01;100893.88;;;25.70;30.43
75420;BME280;63998;52.488;13.428;2023-07-13T11:44:29;100893.16;;;26.26;31.05
75420;BME280;63998;52.488;13.428;2023-07-13T11:46:57;100915.94;;;26.74;31.41
75420;BME280;63998;52.488;13.428;2023-07-13T11:49:30;100900.06;;;26.15;32.34
75420;BME280;63998;52.488;13.428;2023-07-13T11:51:56;100919.41;;;26.18;32.19
75420;BME280;63998;52.488;13.428;2023-07-13T11:54:29;100903.09;;;25.94;32.93
75420;BME280;63998;52.488;13.428;2023-07-13T11:57:02;100901.22;;;26.25;31.80
75420;BME280;63998;52.488;13.428;2023-07-13T11:59:32;100891.38;;;26.41;31.79
75420;BME280;63998;52.488;13.428;2023-07-13T12:01:58;100887.38;;;26.48;30.98
75420;BME280;63998;52.488;13.428;2023-07-13T12:04:26;100890.06;;;26.62;30.57
75420;BME280;63998;52.488;13.428;2023-07-13T12:06:58;100893.66;;;27.04;30.55
75420;BME280;63998;52.488;13.428;2023-07-13T12:09:26;100887.13;;;27.49;29.39
75420;BME280;63998;52.488;13.428;2023-07-13T12:11:52;100887.28;;;27.33;28.78
75420;BME280;63998;52.488;13.428;2023-07-13T12:14:18;100882.28;;;27.56;29.50
75420;BME280;63998;52.488;13.428;2023-07-13T12:16:46;100889.63;;;27.11;30.02
75420;BME280;63998;52.488;13.428;2023-07-13T12:19:23;100875.84;;;27.85;29.47
75420;BME280;63998;52.488;13.428;2023-07-13T12:21:50;100890.50;;;26.83;29.82
75420;BME280;63998;52.488;13.428;2023-07-13T12:24:19;100894.88;;;26.84;30.76
75420;BME280;63998;52.488;13.428;2023-07-13T12:27:00;100890.22;;;27.02;30.65
75420;BME280;63998;52.488;13.428;2023-07-13T12:29:27;100887.28;;;26.92;30.50
75420;BME280;63998;52.488;13.428;2023-07-13T12:31:53;100873.78;;;27.22;30.33
75420;BME280;63998;52.488;13.428;2023-07-13T12:34:21;100881.09;;;27.99;28.47
75420;BME280;63998;52.488;13.428;2023-07-13T12:36:59;100884.63;;;27.60;28.89
75420;BME280;63998;52.488;13.428;2023-07-13T12:39:34;100890.38;;;27.54;29.75
75420;BME280;63998;52.488;13.428;2023-07-13T12:44:45;100879.53;;;27.70;29.30
75420;BME280;63998;52.488;13.428;2023-07-13T12:47:13;100894.03;;;27.39;29.83
75420;BME280;63998;52.488;13.428;2023-07-13T12:49:43;100892.66;;;27.46;29.35
75420;BME280;63998;52.488;13.428;2023-07-13T12:52:19;100891.53;;;27.50;29.65
75420;BME280;63998;52.488;13.428;2023-07-13T12:55:07;100888.53;;;26.58;29.53
75420;BME280;63998;52.488;13.428;2023-07-13T12:57:41;100889.69;;;26.68;29.85
75420;BME280;63998;52.488;13.428;2023-07-13T13:00:37;100903.75;;;26.42;30.70
75420;BME280;63998;52.488;13.428;2023-07-13T13:03:24;100900.16;;;26.43;31.12
75420;BME280;63998;52.488;13.428;2023-07-13T13:06:00;100888.75;;;26.11;30.95
75420;BME280;63998;52.488;13.428;2023-07-13T13:08:29;100893.69;;;26.33;30.45
75420;BME280;63998;52.488;13.428;2023-07-13T13:10:55;100917.28;;;26.53;29.40
75420;BME280;63998;52.488;13.428;2023-07-13T13:13:20;100886.25;;;26.80;29.26
75420;BME280;63998;52.488;13.428;2023-07-13T13:15:46;100888.06;;;27.21;29.24
75420;BME280;63998;52.488;13.428;2023-07-13T13:18:23;100881.69;;;27.50;28.64
75420;BME280;63998;52.488;13.428;2023-07-13T13:20:50;100896.84;;;27.64;28.75